»·PEaware :: N13W KOXR-KTRM

N13W :: KOXR-KTRM

FLIGHT INFORMATION

Flight Status: Arrived
Operator: Privately registered:
United States
More flights under this callsign
Pilot: Will N. (25416)
Aircraft: SOCATA TBM-900
(TBM9)
More flights by this aircraft type
Origin: KOXR Oxnard
United States
Destination: KTRM Desert Resorts Regl
United States
More flights between these airports :: More routes between these airports
Route: GINNA V326 VNY V186 ITSME V264 POM V197 PDZ V186 NIKKL V64 TRM
File this flight plan on PilotEdge
Remarks: RMK / SIMBRIEF
Altitude:
(Current/Filed)
13,000ft
Speed:
(Current/Filed)
260kts
Departed: 11-Jan-21 06:50 PM
Arrived: 11-Jan-21 07:52 PM
Distance/Time
Traveled:
155nm/1:02
Distance/Time
To Go:
Arrived

Flight Plot

Page will automatically refresh every two minutes.

Flight plan parsing failed; only flown route is shown


Map Options




Map Legend


Flown Route
Filed Route
Departure Airport
Arrival Airport
Navaid (VOR, NDB)
Fix

Horizontal Profiles

Position Reports

Time Latitude Longitude Heading Altitude Ground
Speed
11-Jan-21 18:33 34.199238 -119.199455 88 44ft 0kts
11-Jan-21 18:34 34.199238 -119.199455 88 44ft 0kts
11-Jan-21 18:35 34.199238 -119.199455 88 44ft 0kts
11-Jan-21 18:36 34.199238 -119.199455 88 44ft 0kts
11-Jan-21 18:37 34.199238 -119.199455 88 44ft 0kts
11-Jan-21 18:38 34.199238 -119.199455 88 44ft 0kts
11-Jan-21 18:39 34.199238 -119.199455 88 44ft 0kts
11-Jan-21 18:40 34.199238 -119.199455 88 44ft 0kts
11-Jan-21 18:41 34.199238 -119.199455 88 44ft 0kts
11-Jan-21 18:42 34.199238 -119.199455 88 44ft 0kts
11-Jan-21 18:43 34.199238 -119.199455 88 44ft 0kts
11-Jan-21 18:44 34.199238 -119.199455 88 44ft 0kts
11-Jan-21 18:45 34.199245 -119.199379 78 44ft 4kts
11-Jan-21 18:46 34.199903 -119.197592 20 45ft 0kts
11-Jan-21 18:47 34.199903 -119.197592 20 45ft 0kts
11-Jan-21 18:48 34.200473 -119.197494 6 45ft 5kts
11-Jan-21 18:49 34.200659 -119.212143 269 199ft 130kts
11-Jan-21 18:50 34.198048 -119.262747 267 2679ft 133kts
11-Jan-21 18:51 34.195737 -119.308457 267 4624ft 135kts
11-Jan-21 18:52 34.179941 -119.342242 167 6095ft 144kts
11-Jan-21 18:53 34.164460 -119.294667 82 7574ft 171kts
11-Jan-21 18:54 34.171943 -119.233544 81 9657ft 173kts
11-Jan-21 18:55 34.179281 -119.176218 81 11906ft 177kts
11-Jan-21 18:56 34.187730 -119.110371 81 12807ft 234kts
11-Jan-21 18:57 34.198412 -119.026652 81 12784ft 262kts
11-Jan-21 18:58 34.209963 -118.935436 81 12781ft 267kts
11-Jan-21 18:59 34.221363 -118.844926 81 12780ft 268kts
11-Jan-21 19:00 34.223176 -118.754955 89 12789ft 267kts
11-Jan-21 19:01 34.223325 -118.664482 89 12789ft 268kts
11-Jan-21 19:02 34.223421 -118.574627 89 12789ft 268kts
11-Jan-21 19:03 34.221660 -118.484637 106 12766ft 268kts
11-Jan-21 19:04 34.195682 -118.399892 109 12789ft 268kts
11-Jan-21 19:05 34.169974 -118.315338 110 12789ft 268kts
11-Jan-21 19:06 34.144090 -118.230361 110 12789ft 268kts
11-Jan-21 19:07 34.118348 -118.146072 110 12789ft 268kts
11-Jan-21 19:08 34.092385 -118.061332 110 12789ft 268kts
11-Jan-21 19:09 34.075403 -117.975380 88 12785ft 267kts
11-Jan-21 19:10 34.076923 -117.885143 88 12780ft 268kts
11-Jan-21 19:11 34.078016 -117.795333 93 12773ft 268kts
11-Jan-21 19:12 34.037365 -117.720913 126 12780ft 268kts
11-Jan-21 19:13 33.992545 -117.648964 126 12780ft 268kts
11-Jan-21 19:14 33.947336 -117.576441 126 12780ft 268kts
11-Jan-21 19:15 33.896724 -117.511550 145 12783ft 267kts
11-Jan-21 19:16 33.835541 -117.460529 144 12780ft 268kts
11-Jan-21 19:17 33.774266 -117.409238 144 12780ft 268kts
11-Jan-21 19:18 33.728811 -117.344944 96 12791ft 267kts
11-Jan-21 19:19 33.721473 -117.255555 95 12780ft 268kts
11-Jan-21 19:20 33.714238 -117.166321 95 12780ft 268kts
11-Jan-21 19:21 33.706913 -117.076823 95 12780ft 268kts
11-Jan-21 19:22 33.699538 -116.987506 95 12780ft 268kts
11-Jan-21 19:23 33.692121 -116.898473 95 12780ft 268kts
11-Jan-21 19:24 33.684646 -116.809632 95 12779ft 265kts
11-Jan-21 19:25 33.677218 -116.722069 95 12734ft 262kts
11-Jan-21 19:26 33.669772 -116.635011 95 12734ft 260kts
11-Jan-21 19:27 33.662315 -116.548476 95 12734ft 260kts
11-Jan-21 19:28 33.654842 -116.462478 95 12734ft 260kts
11-Jan-21 19:29 33.647080 -116.373878 95 12734ft 260kts
11-Jan-21 19:30 33.639351 -116.286361 96 11874ft 253kts
11-Jan-21 19:31 33.632009 -116.203864 96 10351ft 243kts
11-Jan-21 19:32 33.622073 -116.124740 101 8841ft 237kts
11-Jan-21 19:33 33.609314 -116.048436 101 7315ft 226kts
11-Jan-21 19:34 33.596433 -115.971224 101 5735ft 223kts
11-Jan-21 19:35 33.584194 -115.897874 101 4735ft 207kts
11-Jan-21 19:36 33.565404 -115.835598 160 4721ft 192kts
11-Jan-21 19:37 33.513111 -115.823748 164 4735ft 191kts
11-Jan-21 19:38 33.461748 -115.817352 222 4391ft 195kts
11-Jan-21 19:39 33.427279 -115.864721 229 4031ft 182kts
11-Jan-21 19:40 33.396036 -115.908424 229 4302ft 173kts
11-Jan-21 19:42 33.366136 -115.954252 260 4284ft 176kts
11-Jan-21 19:43 33.396132 -115.997669 319 4301ft 176kts
11-Jan-21 19:44 33.431510 -116.033721 319 3812ft 147kts
11-Jan-21 19:45 33.461871 -116.064707 319 2803ft 142kts
11-Jan-21 19:46 33.488966 -116.092280 319 2587ft 118kts
11-Jan-21 19:47 33.515032 -116.118793 319 1987ft 122kts
11-Jan-21 19:48 33.543519 -116.140381 348 1380ft 99kts
11-Jan-21 19:49 33.568913 -116.153970 345 796ft 92kts
11-Jan-21 19:50 33.595588 -116.156499 1 330ft 87kts
11-Jan-21 19:51 33.619830 -116.156413 359 -121ft 64kts
11-Jan-21 19:52 33.626338 -116.157733 358 -117ft 13kts
11-Jan-21 19:53 33.630052 -116.157724 359 -116ft 13kts
11-Jan-21 19:54 33.634024 -116.157820 321 -113ft 11kts
11-Jan-21 19:55 33.634344 -116.161855 339 -110ft 5kts
11-Jan-21 19:55 33.634507 -116.162179 179 -109ft 0kts
11-Jan-21 19:57 33.634507 -116.162179 179 -109ft 0kts
11-Jan-21 19:57 33.634507 -116.162179 179 -109ft 0kts

Navigation Log

Ident Type
Flight plan parsing failed, navigation log unavailable